Time;durP1;ratioP1;P1;durP2;ratioP2;P2;SDS_P1;SDS_P2;PMS_P1;PMS_P2;Temp;Humidity;BMP_temperature;BMP_pressure;BME280_temperature;BME280_humidity;BME280_pressure;Samples;Min_cycle;Max_cycle;Signal;HPM_P1;HPM_P2
2021/04/17 00:02:16;;;;;;;7.93;7.17;;;;;;;4.58;80.99;99301.13;4788791;29;102934;-80
2021/04/17 00:04:44;;;;;;;7.97;7.17;;;;;;;4.55;80.60;99301.25;4777164;29;103330;-82
2021/04/17 00:07:13;;;;;;;7.60;6.87;;;;;;;4.56;80.41;99293.34;4785069;29;103233;-81
2021/04/17 00:09:41;;;;;;;7.23;6.53;;;;;;;4.69;79.68;99293.72;4794542;29;102978;-80
2021/04/17 00:12:12;;;;;;;6.30;5.70;;;;;;;4.76;79.37;99295.19;4776910;29;103399;-82
2021/04/17 00:14:40;;;;;;;7.97;7.23;;;;;;;4.67;79.67;99292.94;4793711;29;103888;-80
2021/04/17 00:17:14;;;;;;;6.80;6.17;;;;;;;4.82;79.75;99284.47;4795539;29;104284;-81
2021/04/17 00:19:43;;;;;;;7.80;6.97;;;;;;;4.87;79.14;99282.53;4793865;29;103097;-81
2021/04/17 00:22:10;;;;;;;7.83;6.57;;;;;;;4.89;79.33;99283.31;4781020;29;103232;-80
2021/04/17 00:24:37;;;;;;;9.33;7.90;;;;;;;4.67;79.70;99280.69;4788418;29;104522;-80
2021/04/17 00:27:06;;;;;;;8.53;7.63;;;;;;;4.66;79.80;99278.13;4777014;29;103718;-82
2021/04/17 00:29:35;;;;;;;9.70;7.57;;;;;;;4.81;79.18;99272.28;4790073;29;102902;-82
2021/04/17 00:32:05;;;;;;;7.13;6.43;;;;;;;4.82;79.42;99274.00;4794568;29;102968;-80
2021/04/17 00:34:32;;;;;;;8.57;7.67;;;;;;;4.79;79.41;99270.66;4793166;29;105180;-82
2021/04/17 00:37:00;;;;;;;7.83;7.07;;;;;;;4.79;79.19;99274.13;4788789;29;106700;-79
2021/04/17 00:39:27;;;;;;;8.43;7.57;;;;;;;4.71;79.90;99270.97;4795278;29;103020;-78
2021/04/17 00:41:54;;;;;;;7.63;6.93;;;;;;;4.86;79.36;99267.72;4794753;29;103257;-80
2021/04/17 00:44:21;;;;;;;6.40;5.80;;;;;;;5.00;78.83;99261.91;4794175;29;104007;-80
2021/04/17 00:46:49;;;;;;;7.63;6.83;;;;;;;5.04;78.59;99261.75;4793908;29;104286;-82
2021/04/17 00:49:16;;;;;;;6.70;6.10;;;;;;;5.08;78.40;99259.88;4792532;29;103142;-82
2021/04/17 00:51:43;;;;;;;7.90;7.20;;;;;;;5.06;79.07;99261.66;4793837;29;102896;-82
2021/04/17 00:54:11;;;;;;;7.47;6.77;;;;;;;5.09;79.15;99258.94;4776178;29;103833;-82
2021/04/17 00:56:38;;;;;;;6.27;5.67;;;;;;;5.12;78.87;99257.03;4793955;29;103861;-80
2021/04/17 00:59:05;;;;;;;5.83;5.33;;;;;;;5.15;77.78;99251.69;4786941;29;103140;-81
2021/04/17 01:01:32;;;;;;;8.73;7.93;;;;;;;5.13;78.69;99252.66;4791555;29;103484;-80
2021/04/17 01:04:07;;;;;;;6.33;5.73;;;;;;;5.05;79.91;99252.13;4796308;29;103764;-81
2021/04/17 01:06:39;;;;;;;7.43;6.73;;;;;;;5.10;78.88;99248.41;4801159;29;104371;-80
2021/04/17 01:09:10;;;;;;;8.93;8.03;;;;;;;4.99;79.21;99250.63;4795065;29;103039;-81
2021/04/17 01:11:42;;;;;;;8.50;7.70;;;;;;;4.92;79.34;99245.66;4796572;29;102908;-79
2021/04/17 01:14:10;;;;;;;7.90;7.20;;;;;;;5.00;79.47;99252.28;4791799;29;106698;-80
2021/04/17 01:16:37;;;;;;;7.57;6.87;;;;;;;5.04;78.53;99253.03;4794562;29;103782;-79
2021/04/17 01:19:10;;;;;;;6.97;6.27;;;;;;;5.03;79.12;99257.41;4776717;29;103253;-81
2021/04/17 01:21:39;;;;;;;8.83;8.03;;;;;;;4.96;79.00;99255.13;4789244;29;103001;-80
2021/04/17 01:24:12;;;;;;;7.33;6.63;;;;;;;4.94;79.70;99254.34;4778114;29;103347;-80
2021/04/17 01:26:41;;;;;;;6.57;5.97;;;;;;;5.01;79.00;99254.00;4795133;29;103209;-81
2021/04/17 01:29:09;;;;;;;7.07;6.43;;;;;;;5.02;79.63;99247.88;4794973;29;102927;-79
2021/04/17 01:31:39;;;;;;;8.37;7.57;;;;;;;5.02;79.14;99250.50;4794664;29;103014;-81
2021/04/17 01:34:07;;;;;;;7.30;6.47;;;;;;;4.96;79.88;99242.03;4793141;29;104304;-79
2021/04/17 01:36:37;;;;;;;7.27;6.57;;;;;;;5.04;79.16;99238.19;4789802;29;109265;-80
2021/04/17 01:39:07;;;;;;;8.50;7.70;;;;;;;4.98;78.36;99233.19;4788667;29;102886;-81
2021/04/17 01:41:38;;;;;;;10.53;8.40;;;;;;;4.85;79.36;99237.22;4794297;29;102613;-80
2021/04/17 01:44:10;;;;;;;9.83;8.80;;;;;;;4.46;81.50;99234.41;4792499;29;104170;-78
2021/04/17 01:46:43;;;;;;;8.67;7.87;;;;;;;4.52;81.77;99241.22;4790838;29;103645;-80
2021/04/17 01:49:14;;;;;;;7.37;6.67;;;;;;;4.62;81.24;99239.91;4792647;29;103199;-80
2021/04/17 01:51:45;;;;;;;9.20;8.30;;;;;;;4.62;80.53;99237.31;4777457;29;103735;-79
2021/04/17 01:54:17;;;;;;;9.63;8.63;;;;;;;4.45;81.79;99242.34;4761061;29;104933;-81
2021/04/17 01:56:47;;;;;;;7.80;7.03;;;;;;;4.52;81.70;99233.34;4777362;29;103095;-81
2021/04/17 01:59:17;;;;;;;6.27;5.73;;;;;;;4.69;80.37;99236.13;4777111;29;102908;-79
2021/04/17 02:01:45;;;;;;;6.27;5.67;;;;;;;4.66;80.59;99237.09;4769685;29;105422;-80
2021/04/17 02:04:12;;;;;;;9.07;7.57;;;;;;;4.61;80.57;99240.81;4803456;29;104701;-79
2021/04/17 02:06:40;;;;;;;8.50;7.70;;;;;;;4.57;81.11;99231.41;4800190;29;103153;-81
2021/04/17 02:09:08;;;;;;;8.73;7.67;;;;;;;4.59;81.50;99234.81;4792924;29;102994;-80
2021/04/17 02:11:35;;;;;;;8.90;8.10;;;;;;;4.63;80.33;99231.16;4789404;29;103138;-81
2021/04/17 02:14:03;;;;;;;9.47;8.47;;;;;;;4.55;81.15;99233.19;4776166;29;105546;-81
2021/04/17 02:16:37;;;;;;;8.90;8.10;;;;;;;4.53;81.66;99230.66;4793635;29;104143;-81
2021/04/17 02:19:09;;;;;;;8.40;7.60;;;;;;;4.56;81.61;99227.94;4792856;29;104528;-80
2021/04/17 02:21:38;;;;;;;9.10;8.30;;;;;;;4.42;82.09;99232.84;4780170;29;103002;-79
2021/04/17 02:24:07;;;;;;;10.40;9.50;;;;;;;4.21;82.75;99230.22;4776147;29;104330;-81
2021/04/17 02:26:36;;;;;;;9.50;8.40;;;;;;;4.25;83.23;99234.41;4793915;29;103773;-79
2021/04/17 02:29:04;;;;;;;10.83;9.77;;;;;;;4.16;83.68;99229.53;4793539;29;102822;-81
2021/04/17 02:31:32;;;;;;;10.10;9.10;;;;;;;4.15;83.65;99223.47;4793513;29;102895;-79
2021/04/17 02:33:59;;;;;;;10.83;9.80;;;;;;;4.15;83.91;99233.06;4791806;29;103314;-81
2021/04/17 02:36:26;;;;;;;10.33;9.43;;;;;;;4.20;84.05;99225.88;4789872;29;103908;-81
2021/04/17 02:38:53;;;;;;;10.30;9.30;;;;;;;4.25;83.40;99229.19;4774962;29;102664;-80
2021/04/17 02:41:20;;;;;;;10.00;8.60;;;;;;;4.29;83.85;99229.03;4792082;29;102899;-78
2021/04/17 02:43:48;;;;;;;9.33;8.53;;;;;;;4.37;83.06;99223.47;4792703;29;103551;-80
2021/04/17 02:46:15;;;;;;;9.03;8.13;;;;;;;4.49;82.92;99223.00;4790547;29;103904;-81
2021/04/17 02:48:43;;;;;;;10.40;9.40;;;;;;;4.39;83.58;99226.88;4788393;29;103749;-81
2021/04/17 02:51:11;;;;;;;9.47;8.47;;;;;;;4.35;83.79;99225.31;4792655;29;103215;-80
2021/04/17 02:53:38;;;;;;;9.17;8.27;;;;;;;4.48;83.11;99226.53;4777182;29;104114;-79
2021/04/17 02:56:05;;;;;;;8.20;7.37;;;;;;;4.59;82.30;99224.34;4791093;29;103341;-82
2021/04/17 02:58:32;;;;;;;8.13;7.33;;;;;;;4.66;81.97;99210.94;4790051;29;103132;-80
2021/04/17 03:01:00;;;;;;;8.27;7.47;;;;;;;4.70;81.63;99214.28;4786784;29;102957;-79
2021/04/17 03:03:27;;;;;;;9.00;8.20;;;;;;;4.60;83.17;99215.56;4775956;29;103368;-81
2021/04/17 03:05:55;;;;;;;9.57;8.70;;;;;;;4.46;84.48;99217.91;4792832;29;103935;-82
2021/04/17 03:08:22;;;;;;;7.10;6.50;;;;;;;4.51;83.80;99210.69;4793039;29;103244;-82
2021/04/17 03:10:49;;;;;;;8.23;7.43;;;;;;;4.63;82.09;99218.91;4793046;29;103136;-80
2021/04/17 03:13:17;;;;;;;7.97;7.17;;;;;;;4.70;82.37;99227.38;4792160;29;104928;-81
2021/04/17 03:15:44;;;;;;;10.47;9.37;;;;;;;4.54;83.15;99215.81;4792759;29;103754;-82
2021/04/17 03:18:12;;;;;;;10.10;9.03;;;;;;;4.54;83.23;99213.19;4791566;29;103021;-80
2021/04/17 03:20:39;;;;;;;7.80;7.10;;;;;;;4.58;83.43;99215.63;4792607;29;103323;-81
2021/04/17 03:23:07;;;;;;;11.10;10.00;;;;;;;4.46;83.96;99212.66;4791082;29;104092;-81
2021/04/17 03:25:34;;;;;;;7.77;6.97;;;;;;;4.47;84.54;99214.34;4779504;29;103529;-81
2021/04/17 03:28:01;;;;;;;6.43;5.83;;;;;;;4.61;82.74;99209.41;4774817;29;102892;-79
2021/04/17 03:30:29;;;;;;;6.93;6.33;;;;;;;4.68;82.47;99203.03;4775761;29;103020;-80
2021/04/17 03:32:57;;;;;;;12.13;9.50;;;;;;;4.61;83.24;99198.94;4791716;29;113270;-80
2021/04/17 03:35:24;;;;;;;10.27;9.30;;;;;;;4.56;83.58;99208.75;4791631;29;110406;-82
2021/04/17 03:37:51;;;;;;;9.77;8.87;;;;;;;4.25;85.95;99203.88;4791755;29;102865;-78
2021/04/17 03:40:20;;;;;;;8.23;7.43;;;;;;;4.43;85.10;99205.78;4776370;29;103260;-82
2021/04/17 03:42:47;;;;;;;8.73;7.90;;;;;;;4.54;84.02;99205.34;4791684;29;103397;-81
2021/04/17 03:45:15;;;;;;;8.37;7.57;;;;;;;4.56;83.20;99204.38;4773908;29;106254;-82
2021/04/17 03:47:43;;;;;;;9.90;9.00;;;;;;;4.57;83.50;99210.47;4788992;29;103277;-81
2021/04/17 03:50:11;;;;;;;8.10;7.40;;;;;;;4.61;83.08;99217.25;4788047;29;103245;-82
2021/04/17 03:52:38;;;;;;;10.80;9.70;;;;;;;4.52;82.67;99212.41;4781193;29;104349;-83
2021/04/17 03:55:08;;;;;;;8.97;8.10;;;;;;;4.38;83.84;99204.25;4791963;29;103946;-80
2021/04/17 03:57:36;;;;;;;11.67;9.47;;;;;;;4.34;83.49;99205.28;4775291;29;102706;-79
2021/04/17 04:00:04;;;;;;;9.67;8.77;;;;;;;4.26;84.76;99216.06;4787223;29;103089;-79
2021/04/17 04:02:34;;;;;;;9.10;8.20;;;;;;;4.33;83.67;99221.88;4779436;29;103999;-80
2021/04/17 04:05:01;;;;;;;10.97;9.80;;;;;;;4.31;83.32;99213.25;4792960;29;103853;-81
2021/04/17 04:07:28;;;;;;;10.37;8.87;;;;;;;4.28;83.25;99223.81;4796797;29;103178;-82
2021/04/17 04:09:55;;;;;;;9.17;8.27;;;;;;;4.22;84.05;99221.44;4796828;29;102856;-79
2021/04/17 04:12:22;;;;;;;9.27;8.37;;;;;;;4.22;83.80;99222.31;4793748;29;103984;-79
2021/04/17 04:14:50;;;;;;;9.60;8.60;;;;;;;4.18;83.62;99222.50;4778516;29;103871;-80
2021/04/17 04:17:17;;;;;;;10.57;9.57;;;;;;;3.87;85.19;99228.03;4795743;29;103135;-79
2021/04/17 04:19:45;;;;;;;10.80;9.70;;;;;;;3.85;85.45;99227.19;4794133;29;102800;-77
2021/04/17 04:22:12;;;;;;;9.70;8.70;;;;;;;3.79;85.97;99230.06;4793048;29;104770;-77
2021/04/17 04:24:39;;;;;;;10.70;9.70;;;;;;;3.89;84.71;99224.44;4777456;29;106044;-77
2021/04/17 04:27:07;;;;;;;9.60;8.60;;;;;;;3.87;85.06;99228.03;4795189;29;103210;-76
2021/04/17 04:29:34;;;;;;;7.77;6.90;;;;;;;4.03;84.03;99224.78;4795260;29;102947;-78
2021/04/17 04:32:03;;;;;;;9.57;8.53;;;;;;;4.05;83.56;99222.94;4807977;29;104064;-79
2021/04/17 04:34:30;;;;;;;9.63;8.73;;;;;;;4.10;84.12;99221.00;4809398;29;103945;-79
2021/04/17 04:36:57;;;;;;;8.60;7.70;;;;;;;4.19;82.93;99224.19;4776087;29;103150;-79
2021/04/17 04:39:24;;;;;;;9.30;8.30;;;;;;;4.22;82.73;99229.28;4774468;29;103055;-79
2021/04/17 04:41:51;;;;;;;10.40;9.37;;;;;;;4.23;82.45;99220.53;4773902;29;106563;-82
2021/04/17 04:44:18;;;;;;;10.43;9.13;;;;;;;4.19;83.21;99229.41;4794611;29;103682;-81
2021/04/17 04:46:45;;;;;;;10.97;9.87;;;;;;;4.13;83.40;99232.28;4780075;29;103222;-82
2021/04/17 04:49:14;;;;;;;9.53;8.60;;;;;;;4.08;84.08;99235.91;4790657;29;103177;-81
2021/04/17 04:51:41;;;;;;;10.90;9.90;;;;;;;3.89;84.31;99237.50;4774935;29;103488;-77
2021/04/17 04:54:08;;;;;;;9.00;8.13;;;;;;;4.03;83.90;99237.84;4778103;29;104988;-79
2021/04/17 04:56:36;;;;;;;9.80;8.80;;;;;;;4.14;82.86;99233.97;4793674;29;103183;-80
2021/04/17 04:59:03;;;;;;;11.07;9.00;;;;;;;4.19;83.00;99239.88;4794979;29;103020;-83
2021/04/17 05:01:30;;;;;;;10.40;8.27;;;;;;;4.21;82.98;99238.91;4778125;29;104141;-82
2021/04/17 05:03:57;;;;;;;9.23;8.33;;;;;;;4.30;82.66;99237.69;4794157;29;103155;-78
2021/04/17 05:06:25;;;;;;;10.87;9.77;;;;;;;4.35;83.17;99236.59;4795099;29;102889;-83
2021/04/17 05:08:52;;;;;;;9.73;8.83;;;;;;;4.05;84.78;99233.41;4793621;29;103104;-78
2021/04/17 05:11:19;;;;;;;10.43;9.20;;;;;;;4.13;85.34;99237.50;4806274;29;105071;-80
2021/04/17 05:13:46;;;;;;;9.93;9.00;;;;;;;4.24;84.43;99237.94;4812734;29;103333;-79
2021/04/17 05:16:13;;;;;;;11.10;9.97;;;;;;;4.37;83.39;99228.72;4795200;29;103142;-78
2021/04/17 05:18:41;;;;;;;11.27;10.10;;;;;;;4.44;83.68;99232.78;4793332;29;102822;-78
2021/04/17 05:21:08;;;;;;;10.07;9.07;;;;;;;4.48;83.30;99237.84;4793609;29;104306;-78
2021/04/17 05:23:35;;;;;;;11.87;10.77;;;;;;;4.54;83.02;99237.63;4793561;29;104160;-80
2021/04/17 05:26:03;;;;;;;11.60;10.43;;;;;;;4.48;83.69;99242.22;4793530;29;102851;-80
2021/04/17 05:28:30;;;;;;;11.10;9.90;;;;;;;4.58;83.32;99248.78;4793642;29;103069;-80
2021/04/17 05:30:57;;;;;;;11.83;10.73;;;;;;;4.62;84.31;99239.91;4795816;29;105299;-79
2021/04/17 05:33:24;;;;;;;10.63;8.87;;;;;;;4.79;82.96;99241.84;4791068;29;103946;-78
2021/04/17 05:35:52;;;;;;;10.20;9.17;;;;;;;4.86;81.70;99235.44;4763867;29;105034;-80
2021/04/17 05:38:19;;;;;;;11.90;10.57;;;;;;;4.88;81.62;99244.97;4790381;29;103270;-78
2021/04/17 05:40:47;;;;;;;12.13;10.93;;;;;;;4.62;82.85;99245.16;4775029;29;109382;-80
2021/04/17 05:43:14;;;;;;;12.77;11.43;;;;;;;4.76;82.66;99236.75;4791558;29;104257;-79
2021/04/17 05:45:41;;;;;;;10.50;9.50;;;;;;;4.94;81.74;99246.47;4774921;29;103361;-78
2021/04/17 05:48:08;;;;;;;14.07;12.23;;;;;;;4.81;81.68;99245.25;4787857;29;102838;-83
2021/04/17 05:50:36;;;;;;;12.47;11.17;;;;;;;4.76;82.79;99241.97;4789752;29;104701;-80
2021/04/17 05:53:03;;;;;;;12.90;11.70;;;;;;;4.73;82.57;99248.19;4790711;29;105985;-81
2021/04/17 05:55:30;;;;;;;13.67;12.13;;;;;;;4.70;83.22;99245.69;4790997;29;102927;-80
2021/04/17 05:57:57;;;;;;;13.73;12.37;;;;;;;4.71;83.44;99244.78;4793722;29;103040;-82
2021/04/17 06:00:25;;;;;;;13.70;12.30;;;;;;;4.83;82.73;99239.03;4770924;29;104909;-80
2021/04/17 06:02:53;;;;;;;13.30;12.03;;;;;;;4.99;82.95;99248.00;4796808;29;104245;-79
2021/04/17 06:05:21;;;;;;;11.23;10.13;;;;;;;5.05;82.24;99245.09;4795655;29;103124;-81
2021/04/17 06:07:48;;;;;;;9.77;8.83;;;;;;;5.13;82.13;99243.03;4792653;29;102958;-79
2021/04/17 06:10:15;;;;;;;12.27;10.93;;;;;;;5.16;82.07;99245.53;4791037;29;104034;-82
2021/04/17 06:12:42;;;;;;;14.80;13.07;;;;;;;5.21;82.22;99240.94;4773710;29;104603;-81
2021/04/17 06:15:12;;;;;;;11.63;10.47;;;;;;;5.38;81.35;99235.00;4790954;29;103010;-80
2021/04/17 06:17:39;;;;;;;14.40;12.97;;;;;;;5.32;81.42;99234.38;4798317;29;104893;-80
2021/04/17 06:20:08;;;;;;;12.87;11.50;;;;;;;5.36;82.03;99241.22;4796801;29;103901;-81
2021/04/17 06:22:35;;;;;;;12.03;10.83;;;;;;;5.59;81.09;99243.66;4793993;29;103367;-80
2021/04/17 06:25:04;;;;;;;13.00;11.67;;;;;;;5.70;79.95;99233.56;4803679;29;103024;-79
2021/04/17 06:27:32;;;;;;;14.03;12.07;;;;;;;5.59;80.76;99241.06;4791612;29;103227;-83
2021/04/17 06:30:00;;;;;;;14.30;12.80;;;;;;;5.65;80.08;99236.41;4786624;29;104170;-81
2021/04/17 06:32:28;;;;;;;13.83;12.10;;;;;;;5.44;80.97;99241.72;4799488;29;103803;-82
2021/04/17 06:34:55;;;;;;;11.60;10.57;;;;;;;5.69;80.56;99237.97;4805616;29;102964;-82
2021/04/17 06:37:22;;;;;;;11.40;9.90;;;;;;;5.89;79.42;99239.75;4798717;29;103087;-81
2021/04/17 06:39:50;;;;;;;11.77;10.60;;;;;;;6.14;78.25;99245.59;4790080;29;103933;-80
2021/04/17 06:42:20;;;;;;;12.23;10.87;;;;;;;6.30;77.25;99243.94;4775115;29;103341;-82
2021/04/17 06:44:50;;;;;;;12.63;11.33;;;;;;;6.41;76.89;99249.56;4791218;29;103129;-82
2021/04/17 06:47:17;;;;;;;13.27;12.07;;;;;;;6.43;75.87;99244.22;4786676;29;104209;-82
2021/04/17 06:49:46;;;;;;;11.73;10.53;;;;;;;6.62;75.99;99246.84;4780291;29;104445;-77
2021/04/17 06:52:14;;;;;;;12.93;11.27;;;;;;;6.61;75.32;99245.13;4780327;29;103797;-76
2021/04/17 06:54:43;;;;;;;12.67;11.00;;;;;;;6.59;75.56;99247.84;4790611;29;103123;-88
2021/04/17 06:57:10;;;;;;;13.40;12.00;;;;;;;6.76;75.88;99247.03;4791131;29;103439;-82
2021/04/17 06:59:37;;;;;;;13.80;12.33;;;;;;;6.86;73.96;99240.41;4789664;29;103868;-79
2021/04/17 07:02:04;;;;;;;14.83;13.33;;;;;;;6.80;74.02;99238.91;4784272;29;103275;-80
2021/04/17 07:04:32;;;;;;;14.43;13.03;;;;;;;6.76;75.31;99242.63;4783418;29;102701;-86
2021/04/17 07:07:02;;;;;;;13.33;12.03;;;;;;;7.26;73.71;99240.13;4792375;29;102787;-78
2021/04/17 07:09:30;;;;;;;15.13;12.63;;;;;;;7.16;72.17;99235.44;4769001;29;103921;-79
2021/04/17 07:11:57;;;;;;;14.80;12.20;;;;;;;7.17;72.98;99232.69;4780394;29;103844;-82
2021/04/17 07:14:24;;;;;;;15.47;12.23;;;;;;;7.14;73.65;99239.88;4775391;29;102860;-81
2021/04/17 07:17:02;;;;;;;15.13;13.20;;;;;;;7.34;72.68;99232.72;4788184;29;103120;-82
2021/04/17 07:19:52;;;;;;;13.67;12.27;;;;;;;7.46;71.25;99226.84;4787545;29;104425;-79
2021/04/17 07:22:22;;;;;;;11.07;10.00;;;;;;;7.93;70.14;99236.63;4788755;29;103831;-82
2021/04/17 07:24:52;;;;;;;15.13;12.30;;;;;;;7.61;69.18;99221.72;4792196;29;103249;-81
2021/04/17 07:27:37;;;;;;;12.40;11.23;;;;;;;7.98;69.85;99224.94;4786571;29;103069;-80
2021/04/17 07:30:08;;;;;;;13.77;12.37;;;;;;;8.19;69.54;99228.22;4787369;29;104066;-82
2021/04/17 07:32:36;;;;;;;12.07;10.90;;;;;;;8.73;68.05;99219.03;4792100;29;103735;-79
2021/04/17 07:35:10;;;;;;;12.07;10.80;;;;;;;9.06;65.39;99222.41;4790882;29;102836;-79
2021/04/17 07:37:39;;;;;;;12.70;10.77;;;;;;;9.38;66.26;99217.00;4789710;29;102773;-78
2021/04/17 07:40:20;;;;;;;11.87;10.77;;;;;;;9.45;64.60;99216.56;4774844;29;106138;-78
2021/04/17 07:42:50;;;;;;;11.10;10.10;;;;;;;9.80;64.13;99223.19;4789707;29;103735;-79
2021/04/17 07:45:23;;;;;;;13.87;10.27;;;;;;;9.74;63.35;99215.66;4761110;29;103689;-79
2021/04/17 07:47:52;;;;;;;12.13;10.87;;;;;;;9.85;60.94;99209.75;4792107;29;103162;-78
2021/04/17 07:50:21;;;;;;;11.83;10.67;;;;;;;9.76;62.23;99219.06;4793937;29;103877;-80
2021/04/17 07:52:49;;;;;;;10.27;9.37;;;;;;;10.15;62.51;99207.88;4808499;29;104766;-81
2021/04/17 07:55:18;;;;;;;10.93;9.83;;;;;;;10.20;61.46;99207.56;4806247;29;102963;-81
2021/04/17 07:57:47;;;;;;;13.30;9.77;;;;;;;10.23;60.15;99205.59;4809520;29;103016;-81
2021/04/17 08:00:16;;;;;;;10.13;9.23;;;;;;;10.40;59.56;99208.03;4810835;29;103987;-81
2021/04/17 08:02:46;;;;;;;8.03;7.30;;;;;;;10.88;57.96;99205.81;4812752;29;104715;-81
2021/04/17 08:05:16;;;;;;;8.77;7.87;;;;;;;9.74;57.19;99207.75;4811227;29;103047;-87
2021/04/17 08:07:43;;;;;;;9.37;8.47;;;;;;;10.23;59.60;99202.97;4811689;29;102996;-79
2021/04/17 08:10:15;;;;;;;10.77;9.77;;;;;;;10.47;57.89;99206.66;4811744;29;104059;-80
2021/04/17 08:12:44;;;;;;;10.87;9.77;;;;;;;10.55;57.43;99208.84;4813522;29;103890;-81
2021/04/17 08:15:14;;;;;;;10.33;9.20;;;;;;;10.65;59.36;99199.38;4790229;29;103241;-81
2021/04/17 08:17:44;;;;;;;8.30;7.47;;;;;;;10.95;57.44;99202.66;4814466;29;102943;-80
2021/04/17 08:20:14;;;;;;;10.00;9.00;;;;;;;11.45;56.71;99195.78;4794437;29;103351;-81
2021/04/17 08:22:43;;;;;;;9.60;8.40;;;;;;;11.12;54.84;99198.03;4808339;29;103805;-81
2021/04/17 08:25:13;;;;;;;9.37;8.47;;;;;;;10.68;57.62;99201.81;4806292;29;103128;-79
2021/04/17 08:27:41;;;;;;;9.97;9.00;;;;;;;10.48;56.95;99202.25;4812935;29;103289;-81
2021/04/17 08:30:10;;;;;;;11.67;9.47;;;;;;;9.78;59.02;99201.34;4817267;29;104559;-83
2021/04/17 08:32:38;;;;;;;10.87;9.10;;;;;;;11.07;57.83;99201.84;4802382;29;103689;-80
2021/04/17 08:35:11;;;;;;;10.63;9.63;;;;;;;9.98;59.41;99196.63;4808350;29;103103;-80
2021/04/17 08:38:12;;;;;;;9.83;8.83;;;;;;;10.15;58.70;99199.09;4815954;29;103200;-80
2021/04/17 08:40:50;;;;;;;8.93;8.03;;;;;;;8.68;60.68;99195.59;4753266;29;103568;-81
2021/04/17 08:43:29;;;;;;;9.33;8.43;;;;;;;8.22;62.48;99201.72;4740481;29;103917;-80
2021/04/17 08:46:07;;;;;;;8.97;8.07;;;;;;;8.63;62.34;99202.06;4796487;29;102939;-80
2021/04/17 08:48:43;;;;;;;10.27;7.80;;;;;;;9.05;60.63;99196.13;4813405;29;103643;-81
2021/04/17 08:51:40;;;;;;;8.43;7.63;;;;;;;9.20;60.78;99197.88;4792125;29;104212;-83
2021/04/17 08:54:22;;;;;;;11.70;8.30;;;;;;;9.49;61.18;99199.59;4787166;29;103561;-83
2021/04/17 08:56:56;;;;;;;11.00;8.87;;;;;;;9.31;59.67;99195.44;4785649;29;103032;-80
2021/04/17 08:59:26;;;;;;;8.13;7.40;;;;;;;9.40;60.15;99184.34;4790159;29;103232;-80
2021/04/17 09:01:56;;;;;;;10.33;8.00;;;;;;;9.53;57.42;99190.59;4789767;29;103876;-81
2021/04/17 09:04:24;;;;;;;7.67;6.87;;;;;;;10.55;57.35;99187.72;4793567;29;103824;-86
2021/04/17 09:06:53;;;;;;;8.90;8.00;;;;;;;10.83;57.22;99187.63;4764248;29;103382;-86
2021/04/17 09:09:39;;;;;;;9.17;7.00;;;;;;;10.30;54.25;99182.31;4788919;29;103119;-84
2021/04/17 09:12:31;;;;;;;6.27;5.67;;;;;;;10.88;53.89;99185.50;4784579;29;109795;-87
2021/04/17 09:15:02;;;;;;;7.53;6.50;;;;;;;9.80;55.90;99190.69;4783809;29;103732;-79
2021/04/17 09:17:40;;;;;;;7.10;6.40;;;;;;;10.18;57.84;99188.34;4799904;29;102826;-82
2021/04/17 09:20:11;;;;;;;6.93;6.33;;;;;;;8.85;56.55;99189.38;4783762;29;103109;-83
2021/04/17 09:22:51;;;;;;;7.07;6.37;;;;;;;8.93;57.57;99188.91;4789321;29;104072;-82
2021/04/17 09:25:44;;;;;;;7.27;6.13;;;;;;;10.62;56.29;99178.44;4791320;29;103107;-80
2021/04/17 09:28:14;;;;;;;6.60;5.90;;;;;;;11.38;52.27;99183.91;4791251;29;102934;-82
2021/04/17 09:30:43;;;;;;;6.50;5.87;;;;;;;12.24;52.72;99174.38;4789474;29;103226;-82
2021/04/17 09:33:15;;;;;;;9.13;6.50;;;;;;;13.38;49.49;99167.59;4776888;29;105955;-80
2021/04/17 09:35:42;;;;;;;6.70;6.10;;;;;;;14.21;47.89;99170.78;4770071;29;105042;-80
2021/04/17 09:38:13;;;;;;;7.63;6.83;;;;;;;12.60;50.45;99166.41;4787182;29;103391;-80
2021/04/17 09:40:43;;;;;;;8.33;6.73;;;;;;;12.32;51.95;99166.72;4788078;29;103335;-83
2021/04/17 09:43:29;;;;;;;7.40;6.67;;;;;;;12.99;49.75;99158.16;4772034;29;105297;-81
2021/04/17 09:45:57;;;;;;;7.20;6.60;;;;;;;14.24;49.38;99163.41;4780817;29;104311;-81
2021/04/17 09:48:25;;;;;;;8.20;7.40;;;;;;;13.07;49.77;99152.28;4773675;29;103362;-80
2021/04/17 09:50:56;;;;;;;7.40;6.80;;;;;;;12.02;51.53;99160.00;4767653;29;103227;-82
2021/04/17 09:53:29;;;;;;;7.17;6.47;;;;;;;11.20;51.35;99166.66;4787797;29;104173;-82
2021/04/17 09:55:58;;;;;;;10.23;6.77;;;;;;;10.95;52.34;99152.41;4788530;29;104323;-84
2021/04/17 09:58:29;;;;;;;6.57;5.87;;;;;;;12.09;52.25;99144.53;4788166;29;103173;-81
2021/04/17 10:01:06;;;;;;;7.63;5.97;;;;;;;12.50;49.49;99142.38;4777138;29;102958;-83
2021/04/17 10:03:35;;;;;;;7.53;6.17;;;;;;;12.53;48.59;99136.00;4775569;29;104909;-80
2021/04/17 10:06:03;;;;;;;6.87;5.93;;;;;;;12.54;49.80;99140.34;4785267;29;104161;-77
2021/04/17 10:08:33;;;;;;;7.53;5.90;;;;;;;12.40;48.74;99128.13;4779965;29;103044;-82
2021/04/17 10:11:02;;;;;;;5.90;5.30;;;;;;;11.69;48.79;99135.91;4786653;29;103370;-81
2021/04/17 10:13:37;;;;;;;5.97;4.90;;;;;;;10.54;50.68;99133.16;4775195;29;104877;-80
2021/04/17 10:16:05;;;;;;;5.97;5.37;;;;;;;11.13;50.48;99134.47;4767818;29;105180;-83
2021/04/17 10:18:34;;;;;;;5.67;5.00;;;;;;;10.31;52.23;99129.38;4778916;29;103925;-81
2021/04/17 10:21:03;;;;;;;5.70;4.60;;;;;;;9.89;52.44;99135.56;4775096;29;104390;-79
2021/04/17 10:23:30;;;;;;;7.47;5.00;;;;;;;10.89;51.80;99131.66;4772676;29;103353;-81
2021/04/17 10:26:07;;;;;;;6.70;5.17;;;;;;;10.14;51.58;99128.75;4785947;29;103801;-80
2021/04/17 10:28:37;;;;;;;6.13;4.83;;;;;;;10.84;53.36;99130.28;4785494;29;103235;-81
2021/04/17 10:31:16;;;;;;;5.43;4.93;;;;;;;11.78;51.37;99122.03;4786518;29;103530;-79
2021/04/17 10:33:44;;;;;;;5.97;5.17;;;;;;;11.79;51.28;99125.53;4787642;29;103940;-82
2021/04/17 10:36:17;;;;;;;5.63;5.13;;;;;;;11.81;49.73;99119.16;4786608;29;103899;-83
2021/04/17 10:38:44;;;;;;;7.80;4.80;;;;;;;12.32;49.69;99113.72;4768458;29;103365;-81
2021/04/17 10:41:18;;;;;;;5.27;4.77;;;;;;;12.61;48.93;99107.13;4745239;29;103593;-81
2021/04/17 10:43:46;;;;;;;6.97;4.73;;;;;;;13.01;48.01;99108.50;4780952;29;105430;-81
2021/04/17 10:46:14;;;;;;;7.70;4.80;;;;;;;12.79;47.59;99103.13;4782057;29;104453;-83
2021/04/17 10:48:43;;;;;;;7.03;5.17;;;;;;;12.20;50.13;99100.41;4780647;29;104207;-83
2021/04/17 10:51:12;;;;;;;7.00;5.10;;;;;;;12.21;48.15;99099.44;4778177;29;103689;-83
2021/04/17 10:53:43;;;;;;;4.97;4.37;;;;;;;11.44;50.59;99097.03;4782481;29;104097;-82
2021/04/17 10:56:12;;;;;;;6.23;4.77;;;;;;;11.52;51.00;99091.22;4781987;29;103727;-85
2021/04/17 10:58:41;;;;;;;5.97;5.17;;;;;;;11.77;48.26;99091.19;4781362;29;103222;-84
2021/04/17 11:01:13;;;;;;;5.70;5.10;;;;;;;12.06;48.20;99087.34;4788437;29;105099;-89
2021/04/17 11:03:42;;;;;;;5.20;4.70;;;;;;;11.96;49.91;99083.63;4770860;29;103978;-82
2021/04/17 11:06:14;;;;;;;10.60;4.83;;;;;;;12.17;49.59;99082.09;4786803;29;104308;-80
2021/04/17 11:08:42;;;;;;;5.13;4.70;;;;;;;11.55;50.65;99080.41;4787365;29;103187;-78
2021/04/17 11:11:11;;;;;;;6.37;5.27;;;;;;;11.39;50.46;99085.09;4790529;29;104552;-83
2021/04/17 11:13:41;;;;;;;5.23;4.50;;;;;;;12.13;48.92;99077.97;4803066;29;104128;-85
2021/04/17 11:16:12;;;;;;;5.10;4.13;;;;;;;12.71;47.88;99069.22;4785220;29;104496;-80
2021/04/17 11:18:41;;;;;;;4.47;3.80;;;;;;;13.50;46.26;99059.66;4793212;29;103919;-84
2021/04/17 11:21:16;;;;;;;6.30;4.20;;;;;;;12.80;45.96;99065.00;4782345;29;103499;-85
2021/04/17 11:23:47;;;;;;;4.10;3.67;;;;;;;12.37;47.79;99058.59;4786957;29;103538;-85
2021/04/17 11:26:17;;;;;;;4.50;4.10;;;;;;;13.41;46.02;99057.69;4783405;29;103770;-84
2021/04/17 11:28:46;;;;;;;3.67;3.37;;;;;;;13.87;45.75;99050.44;4787723;29;103124;-83
2021/04/17 11:31:18;;;;;;;4.10;3.60;;;;;;;13.41;42.27;99052.41;4786852;29;103031;-83
2021/04/17 11:33:47;;;;;;;3.57;2.90;;;;;;;13.71;44.50;99045.50;4777725;29;105404;-87
2021/04/17 11:36:34;;;;;;;4.57;3.80;;;;;;;12.30;46.49;99046.75;4781237;29;104256;-84
2021/04/17 11:39:01;;;;;;;5.67;4.47;;;;;;;13.23;45.27;99044.91;4786131;29;103116;-84